Time;durP1;ratioP1;P1;durP2;ratioP2;P2;SDS_P1;SDS_P2;PMS_P1;PMS_P2;Temp;Humidity;BMP_temperature;BMP_pressure;BME280_temperature;BME280_humidity;BME280_pressure;Samples;Min_cycle;Max_cycle;Signal;HPM_P1;HPM_P2
2023/04/17 00:02:56;;;;;;;15.10;13.70;;;7.40;78.90;;;;;;6296987;28;20436;-86
2023/04/17 00:06:00;;;;;;;15.50;14.13;;;7.40;78.90;;;;;;6300820;28;20228;-86
2023/04/17 00:09:03;;;;;;;17.63;15.80;;;7.40;79.00;;;;;;6309687;28;20226;-87
2023/04/17 00:12:07;;;;;;;16.50;14.80;;;7.40;79.00;;;;;;6290437;28;20229;-86
2023/04/17 00:15:12;;;;;;;16.67;15.07;;;7.40;78.80;;;;;;6294165;28;20297;-85
2023/04/17 00:18:18;;;;;;;15.67;14.27;;;7.40;78.70;;;;;;6295190;28;20248;-85
2023/04/17 00:21:21;;;;;;;17.13;15.50;;;7.40;78.70;;;;;;6299823;28;20244;-86
2023/04/17 00:24:24;;;;;;;16.00;14.50;;;7.40;78.60;;;;;;6304857;28;20269;-87
2023/04/17 00:27:27;;;;;;;17.53;15.70;;;7.40;78.50;;;;;;6300144;28;20326;-86
2023/04/17 00:30:32;;;;;;;17.30;15.80;;;7.40;78.50;;;;;;6295591;28;20728;-86
2023/04/17 00:33:35;;;;;;;16.20;14.77;;;7.40;78.40;;;;;;6293505;28;20759;-85
2023/04/17 00:36:39;;;;;;;17.50;15.70;;;7.40;78.40;;;;;;6286666;28;20237;-85
2023/04/17 00:39:42;;;;;;;16.07;14.67;;;7.30;78.20;;;;;;6312114;28;20302;-86
2023/04/17 00:42:51;;;;;;;17.03;15.43;;;7.30;78.10;;;;;;6294664;28;20237;-86
2023/04/17 00:45:56;;;;;;;16.43;14.90;;;7.30;78.00;;;;;;6285720;28;20931;-86
2023/04/17 00:49:00;;;;;;;16.03;14.53;;;7.30;77.90;;;;;;6302668;28;20304;-87
2023/04/17 00:52:04;;;;;;;17.00;15.43;;;7.40;77.80;;;;;;6291956;28;20318;-88
2023/04/17 00:55:08;;;;;;;19.37;15.30;;;7.30;77.50;;;;;;6301925;28;20225;-86
2023/04/17 00:58:12;;;;;;;17.30;15.60;;;7.30;77.60;;;;;;6295463;28;20231;-87
2023/04/17 01:01:17;;;;;;;15.90;14.27;;;7.30;77.40;;;;;;6294218;28;20262;-86
2023/04/17 01:04:20;;;;;;;17.23;15.50;;;7.20;77.50;;;;;;6290958;28;20237;-86
2023/04/17 01:07:25;;;;;;;16.03;14.57;;;7.20;77.40;;;;;;6312623;28;20395;-86
2023/04/17 01:10:28;;;;;;;15.80;14.43;;;7.20;77.40;;;;;;6293639;28;20237;-86
2023/04/17 01:13:31;;;;;;;17.67;15.77;;;7.30;76.90;;;;;;6310601;28;20237;-84
2023/04/17 01:16:38;;;;;;;16.73;14.80;;;7.20;76.90;;;;;;6308619;28;20244;-84
2023/04/17 01:19:41;;;;;;;17.80;16.00;;;7.20;77.00;;;;;;6300558;28;20228;-82
2023/04/17 01:22:44;;;;;;;16.60;15.10;;;7.20;77.20;;;;;;6311126;28;20456;-85
2023/04/17 01:25:50;;;;;;;19.47;15.43;;;7.20;76.90;;;;;;6317583;28;20312;-87
2023/04/17 01:28:54;;;;;;;16.67;14.97;;;7.20;77.10;;;;;;6305400;28;20241;-86
2023/04/17 01:31:58;;;;;;;16.77;15.17;;;7.20;77.10;;;;;;6300937;28;20239;-85
2023/04/17 01:35:01;;;;;;;17.03;15.37;;;7.10;76.90;;;;;;6311749;28;20240;-87
2023/04/17 01:38:05;;;;;;;18.70;15.83;;;7.10;76.80;;;;;;6304113;28;20254;-87
2023/04/17 01:41:10;;;;;;;17.73;15.40;;;7.20;76.80;;;;;;6301936;28;20236;-87
2023/04/17 01:44:13;;;;;;;17.27;15.43;;;7.20;76.60;;;;;;6299065;28;20245;-87
2023/04/17 01:47:16;;;;;;;17.50;15.17;;;7.20;76.50;;;;;;6311540;28;20228;-86
2023/04/17 01:50:20;;;;;;;16.53;14.83;;;7.00;76.50;;;;;;6299481;28;20241;-86
2023/04/17 01:53:23;;;;;;;17.17;15.60;;;7.10;76.60;;;;;;6305218;28;20228;-87
2023/04/17 01:56:28;;;;;;;18.33;16.50;;;7.00;76.30;;;;;;6305667;28;20626;-86
2023/04/17 01:59:31;;;;;;;18.07;16.37;;;7.00;76.30;;;;;;6288860;28;20240;-87
2023/04/17 02:02:35;;;;;;;19.20;16.90;;;6.90;76.50;;;;;;6295380;28;20238;-87
2023/04/17 02:05:38;;;;;;;17.83;16.07;;;6.90;76.60;;;;;;6290725;28;20957;-89
2023/04/17 02:08:44;;;;;;;17.20;15.50;;;6.80;76.70;;;;;;6308591;28;20232;-88
2023/04/17 02:11:48;;;;;;;19.17;15.63;;;6.80;76.60;;;;;;6285263;28;20324;-85
2023/04/17 02:14:52;;;;;;;19.97;16.93;;;6.70;76.50;;;;;;6319779;28;20224;-84
2023/04/17 02:17:55;;;;;;;17.83;16.07;;;6.70;76.50;;;;;;6319783;28;20237;-83
2023/04/17 02:20:58;;;;;;;16.60;15.03;;;6.70;76.50;;;;;;6326164;28;20222;-84
2023/04/17 02:24:01;;;;;;;18.63;16.70;;;6.60;76.60;;;;;;6319901;28;20217;-86
2023/04/17 02:27:06;;;;;;;18.50;16.60;;;6.60;76.50;;;;;;6317565;28;20213;-87
2023/04/17 02:30:10;;;;;;;17.10;15.30;;;6.60;76.40;;;;;;6288708;28;20305;-85
2023/04/17 02:33:14;;;;;;;17.70;15.87;;;6.50;76.60;;;;;;6285963;28;20600;-88
2023/04/17 02:36:17;;;;;;;18.60;16.60;;;6.50;76.60;;;;;;6287300;28;20245;-87
2023/04/17 02:39:20;;;;;;;18.77;16.70;;;6.50;76.70;;;;;;6291193;28;20229;-87
2023/04/17 02:42:25;;;;;;;18.13;16.43;;;6.40;76.70;;;;;;6294957;28;20839;-85
2023/04/17 02:45:28;;;;;;;18.70;16.80;;;6.40;76.70;;;;;;6296727;28;20359;-87
2023/04/17 02:48:32;;;;;;;18.83;16.93;;;6.30;76.70;;;;;;6312937;28;20236;-86
2023/04/17 02:51:35;;;;;;;18.97;17.20;;;6.30;76.50;;;;;;6302638;28;20241;-87
2023/04/17 02:54:38;;;;;;;18.60;16.80;;;6.30;76.60;;;;;;6316800;28;20233;-88
2023/04/17 02:57:42;;;;;;;18.90;16.97;;;6.20;76.60;;;;;;6314308;28;20304;-85
2023/04/17 03:00:46;;;;;;;18.47;16.57;;;6.10;76.70;;;;;;6297990;28;20251;-86
2023/04/17 03:03:51;;;;;;;18.13;16.27;;;6.10;76.80;;;;;;6304902;28;20780;-85
2023/04/17 03:06:55;;;;;;;17.40;15.70;;;6.10;76.90;;;;;;6298151;28;20316;-87
2023/04/17 03:09:58;;;;;;;17.00;15.50;;;6.10;77.00;;;;;;6302238;28;20269;-85
2023/04/17 03:13:04;;;;;;;18.00;15.57;;;6.10;76.80;;;;;;6291950;28;20234;-86
2023/04/17 03:16:07;;;;;;;17.87;16.07;;;6.10;77.00;;;;;;6294607;28;20507;-88
2023/04/17 03:19:11;;;;;;;19.43;17.30;;;6.00;76.90;;;;;;6286050;28;20233;-85
2023/04/17 03:22:14;;;;;;;18.27;16.47;;;6.00;76.90;;;;;;6286947;28;20232;-84
2023/04/17 03:25:17;;;;;;;22.87;18.50;;;6.00;76.90;;;;;;6319895;27;20236;-87
2023/04/17 03:28:22;;;;;;;19.70;17.60;;;6.00;77.00;;;;;;6293019;28;20239;-87
2023/04/17 03:31:26;;;;;;;20.77;17.07;;;6.00;77.00;;;;;;6289346;28;20237;-89
2023/04/17 03:34:31;;;;;;;19.03;17.03;;;5.90;77.00;;;;;;6288692;28;20240;-84
2023/04/17 03:37:35;;;;;;;19.93;17.93;;;5.90;77.00;;;;;;6284754;28;20238;-79
2023/04/17 03:40:38;;;;;;;20.07;17.67;;;5.90;77.20;;;;;;6286683;28;20244;-79
2023/04/17 03:43:42;;;;;;;17.93;16.07;;;5.90;77.20;;;;;;6290272;28;20237;-79
2023/04/17 03:46:46;;;;;;;24.10;17.37;;;5.90;77.20;;;;;;6288306;28;20234;-81
2023/04/17 03:49:51;;;;;;;21.20;18.63;;;5.80;77.30;;;;;;6273526;28;20643;-79
2023/04/17 03:52:54;;;;;;;19.33;17.00;;;5.80;77.20;;;;;;6285430;28;20226;-81
2023/04/17 03:55:57;;;;;;;19.23;17.40;;;5.80;77.30;;;;;;6288547;28;20225;-80
2023/04/17 03:59:03;;;;;;;20.93;17.63;;;5.70;77.40;;;;;;6286824;28;20237;-80
2023/04/17 04:02:06;;;;;;;20.20;18.10;;;5.70;77.40;;;;;;6287546;28;20943;-81
2023/04/17 04:05:09;;;;;;;23.97;18.53;;;5.60;77.60;;;;;;6292810;28;20855;-82
2023/04/17 04:08:13;;;;;;;20.27;17.70;;;5.60;77.70;;;;;;6290285;28;20792;-80
2023/04/17 04:11:16;;;;;;;21.27;19.17;;;5.60;77.80;;;;;;6295196;28;20237;-80
2023/04/17 04:14:20;;;;;;;21.80;18.83;;;5.60;77.90;;;;;;6287975;28;20228;-80
2023/04/17 04:17:24;;;;;;;23.53;20.50;;;5.70;77.90;;;;;;6296119;28;20233;-79
2023/04/17 04:20:27;;;;;;;20.37;17.77;;;5.70;77.90;;;;;;6289717;28;20245;-78
2023/04/17 04:23:30;;;;;;;23.27;20.03;;;5.70;77.90;;;;;;6287840;28;20244;-79
2023/04/17 04:26:34;;;;;;;23.03;20.07;;;5.80;77.90;;;;;;6284000;28;20233;-80
2023/04/17 04:29:38;;;;;;;22.43;20.07;;;5.90;77.70;;;;;;6299254;28;20241;-80
2023/04/17 04:32:41;;;;;;;22.23;19.50;;;5.90;77.70;;;;;;6289410;28;20242;-80
2023/04/17 04:35:46;;;;;;;22.00;19.63;;;5.90;77.70;;;;;;6293294;28;20283;-79
2023/04/17 04:38:50;;;;;;;26.53;20.10;;;5.90;77.60;;;;;;6289066;28;20323;-78
2023/04/17 04:41:54;;;;;;;22.70;20.13;;;5.90;77.70;;;;;;6280497;28;20234;-80
2023/04/17 04:44:59;;;;;;;22.83;19.63;;;5.90;77.80;;;;;;6297440;28;20233;-78
2023/04/17 04:48:02;;;;;;;25.70;20.87;;;6.00;77.80;;;;;;6302634;28;20233;-77
2023/04/17 04:51:05;;;;;;;23.33;20.83;;;6.00;77.70;;;;;;6306802;28;20290;-80
2023/04/17 04:54:09;;;;;;;22.70;20.40;;;6.00;77.70;;;;;;6282225;28;20826;-79
2023/04/17 04:57:12;;;;;;;24.90;21.03;;;6.00;77.80;;;;;;6283507;28;20233;-80
2023/04/17 05:00:17;;;;;;;27.57;21.80;;;6.10;77.40;;;;;;6276231;28;20358;-80
2023/04/17 05:03:21;;;;;;;22.27;19.87;;;6.10;77.50;;;;;;6277799;28;20276;-80
2023/04/17 05:06:25;;;;;;;23.87;20.73;;;6.20;77.50;;;;;;6275007;28;20330;-81
2023/04/17 05:09:28;;;;;;;23.30;20.83;;;6.20;77.30;;;;;;6279381;28;20240;-80
2023/04/17 05:12:31;;;;;;;30.83;22.93;;;6.30;77.20;;;;;;6286124;28;20256;-81
2023/04/17 05:15:36;;;;;;;27.47;22.47;;;6.40;76.80;;;;;;6289557;28;20316;-80
2023/04/17 05:18:39;;;;;;;27.90;22.60;;;6.40;76.50;;;;;;6287257;28;20781;-79
2023/04/17 05:21:42;;;;;;;27.43;23.87;;;6.40;76.40;;;;;;6292116;28;20241;-79
2023/04/17 05:24:45;;;;;;;28.00;23.27;;;6.40;76.50;;;;;;6279327;28;20827;-79
2023/04/17 05:27:48;;;;;;;26.37;23.33;;;6.40;76.60;;;;;;6295599;28;20238;-80
2023/04/17 05:30:53;;;;;;;28.83;24.47;;;6.50;76.50;;;;;;6289338;28;20241;-81
2023/04/17 05:33:56;;;;;;;27.50;24.10;;;6.50;76.30;;;;;;6274775;28;20233;-78
2023/04/17 05:36:59;;;;;;;30.40;23.50;;;6.60;76.30;;;;;;6277711;28;20245;-77
2023/04/17 05:40:05;;;;;;;29.80;23.83;;;6.60;76.30;;;;;;6286249;28;20229;-78
2023/04/17 05:43:09;;;;;;;31.77;25.97;;;6.60;76.40;;;;;;6281269;28;20248;-78
2023/04/17 05:46:13;;;;;;;30.43;25.37;;;6.60;76.40;;;;;;6288642;28;20858;-80
2023/04/17 05:49:16;;;;;;;30.83;25.60;;;6.60;76.20;;;;;;6291103;28;20229;-79
2023/04/17 05:52:20;;;;;;;29.60;25.70;;;6.70;76.10;;;;;;6278890;28;20225;-80
2023/04/17 05:55:23;;;;;;;32.60;26.97;;;6.70;76.10;;;;;;6288387;28;20314;-80
2023/04/17 05:58:26;;;;;;;31.80;24.67;;;6.70;76.00;;;;;;6288735;28;20319;-80
2023/04/17 06:01:31;;;;;;;30.43;24.93;;;6.70;76.10;;;;;;6279151;28;20310;-78
2023/04/17 06:04:34;;;;;;;29.97;24.80;;;6.70;76.10;;;;;;6273366;28;20249;-80
2023/04/17 06:07:39;;;;;;;27.30;24.33;;;6.80;75.90;;;;;;6276254;28;20276;-80
2023/04/17 06:10:44;;;;;;;29.87;25.37;;;6.80;75.70;;;;;;6272200;28;20229;-80
2023/04/17 06:13:47;;;;;;;30.63;24.93;;;6.80;75.70;;;;;;6265049;28;20226;-79
2023/04/17 06:16:52;;;;;;;31.07;25.53;;;6.90;75.50;;;;;;6289905;28;20257;-77
2023/04/17 06:19:55;;;;;;;25.17;22.53;;;6.80;75.50;;;;;;6302107;28;20233;-77
2023/04/17 06:22:59;;;;;;;30.13;26.37;;;6.80;75.70;;;;;;6317276;28;20292;-77
2023/04/17 06:26:02;;;;;;;28.47;25.53;;;6.90;75.70;;;;;;6326376;28;20227;-77
2023/04/17 06:29:05;;;;;;;31.37;27.13;;;6.90;75.70;;;;;;6307098;28;20240;-78
2023/04/17 06:32:10;;;;;;;30.73;26.20;;;6.90;75.50;;;;;;6344097;27;20236;-76
2023/04/17 06:35:13;;;;;;;30.17;25.83;;;7.00;75.40;;;;;;6316076;28;20229;-76
2023/04/17 06:38:16;;;;;;;31.27;27.03;;;7.00;75.50;;;;;;6314820;28;20418;-83
2023/04/17 06:41:20;;;;;;;30.40;25.57;;;7.00;75.70;;;;;;6296040;28;20243;-79
2023/04/17 06:44:23;;;;;;;28.80;24.27;;;7.00;75.80;;;;;;6303107;28;20631;-81
2023/04/17 06:47:27;;;;;;;29.30;24.07;;;7.10;75.50;;;;;;6294334;28;20240;-79
2023/04/17 06:50:31;;;;;;;28.00;24.63;;;7.20;74.20;;;;;;6283171;28;20287;-80
2023/04/17 06:53:34;;;;;;;28.03;24.07;;;7.40;73.60;;;;;;6292122;28;20236;-78
2023/04/17 06:56:37;;;;;;;26.53;23.00;;;7.30;73.80;;;;;;6300040;28;20320;-80
2023/04/17 06:59:40;;;;;;;27.20;23.90;;;7.40;73.70;;;;;;6296069;28;20759;-79
2023/04/17 07:02:46;;;;;;;30.37;22.77;;;7.40;73.90;;;;;;6292986;28;20383;-76
2023/04/17 07:05:49;;;;;;;25.50;22.53;;;7.30;73.60;;;;;;6322251;28;20281;-76
2023/04/17 07:08:52;;;;;;;25.77;22.93;;;7.40;73.80;;;;;;6321815;28;20249;-77
2023/04/17 07:11:57;;;;;;;28.90;23.10;;;7.40;73.70;;;;;;6328552;28;20224;-78
2023/04/17 07:15:00;;;;;;;26.23;22.67;;;7.40;73.50;;;;;;6325095;28;20239;-77
2023/04/17 07:18:06;;;;;;;26.37;22.77;;;7.50;73.60;;;;;;6316040;28;20232;-75
2023/04/17 07:21:09;;;;;;;26.83;22.80;;;7.50;73.10;;;;;;6314723;28;20279;-79
2023/04/17 07:24:12;;;;;;;25.13;21.70;;;7.60;72.80;;;;;;6292880;28;20229;-80
2023/04/17 07:27:16;;;;;;;23.13;20.73;;;7.70;72.30;;;;;;6291009;28;20243;-79
2023/04/17 07:30:19;;;;;;;23.83;19.80;;;7.80;72.50;;;;;;6296605;28;20237;-79
2023/04/17 07:33:23;;;;;;;25.03;22.43;;;7.80;72.60;;;;;;6289366;28;20233;-80
2023/04/17 07:36:27;;;;;;;25.20;21.93;;;7.80;72.50;;;;;;6290203;28;20361;-82
2023/04/17 07:39:30;;;;;;;26.03;21.33;;;7.80;72.30;;;;;;6293467;28;20228;-80
2023/04/17 07:42:33;;;;;;;26.17;21.87;;;7.80;72.50;;;;;;6289968;28;20233;-80
2023/04/17 07:45:37;;;;;;;30.57;23.17;;;7.80;72.70;;;;;;6294323;28;20228;-80
2023/04/17 07:48:44;;;;;;;23.37;20.87;;;7.80;72.50;;;;;;6295795;28;20241;-79
2023/04/17 07:51:48;;;;;;;24.30;21.70;;;7.80;72.60;;;;;;6294570;28;20252;-82
2023/04/17 07:54:51;;;;;;;25.53;20.93;;;7.90;72.50;;;;;;6297542;28;20243;-77
2023/04/17 07:57:54;;;;;;;25.77;22.23;;;8.00;72.60;;;;;;6283026;28;20229;-81
2023/04/17 08:00:57;;;;;;;23.73;19.93;;;8.00;72.30;;;;;;6283494;28;20795;-79
2023/04/17 08:04:04;;;;;;;23.13;19.00;;;8.00;72.40;;;;;;6291059;28;20325;-82
2023/04/17 08:07:09;;;;;;;24.63;21.03;;;8.10;72.30;;;;;;6292339;28;20615;-80
2023/04/17 08:10:12;;;;;;;25.80;21.67;;;8.30;71.30;;;;;;6302833;28;20872;-81
2023/04/17 08:13:16;;;;;;;22.70;20.23;;;8.40;71.50;;;;;;6291229;28;20237;-81
2023/04/17 08:16:19;;;;;;;21.80;19.57;;;8.50;70.70;;;;;;6291919;28;20272;-80
2023/04/17 08:19:23;;;;;;;22.90;19.87;;;8.60;70.30;;;;;;6288001;28;20972;-80
2023/04/17 08:22:27;;;;;;;27.23;22.73;;;8.80;70.00;;;;;;6290752;28;20400;-79
2023/04/17 08:25:30;;;;;;;24.47;22.00;;;8.90;70.00;;;;;;6289307;28;20731;-79
2023/04/17 08:28:34;;;;;;;25.27;21.20;;;8.90;69.50;;;;;;6285632;28;20279;-77
2023/04/17 08:31:38;;;;;;;21.63;19.43;;;8.90;69.60;;;;;;6287151;28;20229;-78
2023/04/17 08:34:44;;;;;;;24.43;21.77;;;8.90;70.30;;;;;;6289251;28;20233;-81
2023/04/17 08:37:47;;;;;;;24.07;21.43;;;9.00;70.20;;;;;;6282268;28;20838;-81
2023/04/17 08:40:53;;;;;;;21.73;19.53;;;9.20;69.40;;;;;;6288931;28;20319;-80
2023/04/17 08:43:59;;;;;;;25.07;20.10;;;9.20;68.70;;;;;;6283067;28;20319;-79
2023/04/17 08:47:03;;;;;;;22.73;20.33;;;9.30;68.40;;;;;;6287254;28;20514;-79
2023/04/17 08:50:10;;;;;;;25.47;21.07;;;9.40;68.20;;;;;;6275416;28;20251;-80
2023/04/17 08:53:13;;;;;;;22.93;20.63;;;9.30;68.40;;;;;;6285328;28;20644;-80
2023/04/17 08:56:16;;;;;;;24.50;19.43;;;9.30;68.30;;;;;;6286634;28;20257;-80
2023/04/17 08:59:21;;;;;;;22.33;20.03;;;9.30;68.40;;;;;;6287398;28;20229;-80
2023/04/17 09:02:24;;;;;;;22.20;19.87;;;9.40;67.90;;;;;;6288320;28;20237;-81
2023/04/17 09:05:33;;;;;;;21.00;18.73;;;9.40;68.00;;;;;;6282792;28;20252;-79
2023/04/17 09:08:36;;;;;;;22.70;19.90;;;9.40;68.00;;;;;;6286465;28;20236;-78
2023/04/17 09:11:39;;;;;;;22.77;19.60;;;9.40;68.30;;;;;;6287750;28;20240;-81
2023/04/17 09:14:42;;;;;;;22.57;20.13;;;9.40;67.90;;;;;;6286991;28;20324;-81
2023/04/17 09:17:46;;;;;;;20.33;18.23;;;9.50;67.90;;;;;;6287797;28;20237;-80
2023/04/17 09:20:51;;;;;;;21.63;18.47;;;9.60;68.40;;;;;;6300523;28;20241;-79
2023/04/17 09:23:58;;;;;;;23.47;18.67;;;9.70;67.00;;;;;;6306143;28;20260;-77
2023/04/17 09:27:22;;;;;;;21.80;19.23;;;9.80;66.80;;;;;;6319415;28;20221;-77
2023/04/17 09:30:26;;;;;;;23.23;20.87;;;9.80;67.20;;;;;;6316567;28;20221;-77
2023/04/17 09:33:31;;;;;;;22.17;19.20;;;9.70;67.50;;;;;;6312252;28;20244;-79
2023/04/17 09:36:37;;;;;;;21.63;18.13;;;9.70;67.80;;;;;;6289207;28;20312;-80
2023/04/17 09:39:56;;;;;;;21.23;18.57;;;9.80;68.00;;;;;;6289713;28;20362;-79
2023/04/17 09:43:01;;;;;;;19.80;17.80;;;10.10;68.00;;;;;;6285844;28;20366;-79
2023/04/17 09:46:04;;;;;;;19.17;17.27;;;10.40;66.80;;;;;;6286767;28;20898;-80
2023/04/17 09:49:17;;;;;;;16.43;14.93;;;10.80;65.80;;;;;;6285388;28;20612;-83
2023/04/17 09:52:23;;;;;;;15.77;14.37;;;11.10;64.40;;;;;;6282474;28;20230;-78
2023/04/17 09:55:28;;;;;;;15.90;14.43;;;11.40;63.40;;;;;;6293623;28;20629;-80
2023/04/17 09:58:32;;;;;;;15.43;13.90;;;11.50;62.60;;;;;;6292715;28;20229;-80
2023/04/17 10:01:37;;;;;;;15.77;14.33;;;11.50;62.60;;;;;;6293946;28;20229;-79
2023/04/17 10:04:41;;;;;;;16.53;14.93;;;11.30;62.20;;;;;;6287038;28;20233;-79
2023/04/17 10:07:46;;;;;;;16.73;15.23;;;11.20;62.30;;;;;;6291080;28;20222;-80
2023/04/17 10:10:51;;;;;;;16.10;14.70;;;11.10;61.60;;;;;;6291428;28;20236;-80
2023/04/17 10:14:11;;;;;;;15.93;14.27;;;11.00;62.70;;;;;;6288139;28;20348;-80
2023/04/17 10:17:27;;;;;;;15.07;13.67;;;11.00;62.20;;;;;;6285626;28;20257;-80
2023/04/17 10:20:35;;;;;;;17.03;15.33;;;11.00;62.40;;;;;;6286852;28;20264;-80
2023/04/17 10:23:39;;;;;;;17.13;15.43;;;11.10;62.30;;;;;;6287887;28;20237;-81
2023/04/17 10:26:43;;;;;;;17.73;16.13;;;11.40;60.50;;;;;;6291581;28;20849;-77
2023/04/17 10:29:55;;;;;;;16.17;14.47;;;11.30;61.30;;;;;;6279574;28;20837;-79
2023/04/17 10:33:26;;;;;;;17.70;15.63;;;11.40;60.70;;;;;;6274803;28;20226;-78
2023/04/17 10:36:49;;;;;;;15.67;14.07;;;11.50;60.00;;;;;;6278521;28;20241;-77
2023/04/17 10:39:56;;;;;;;16.03;14.47;;;11.80;59.30;;;;;;6279789;28;20313;-79
2023/04/17 10:43:11;;;;;;;16.13;13.83;;;11.90;58.40;;;;;;6281889;28;20237;-79
2023/04/17 10:46:15;;;;;;;14.83;13.63;;;11.90;60.00;;;;;;6283061;28;20319;-78
2023/04/17 10:49:21;;;;;;;15.63;14.13;;;12.00;56.80;;;;;;6294632;28;20256;-79
2023/04/17 10:52:43;;;;;;;15.03;13.73;;;11.90;58.40;;;;;;6293477;28;20240;-79
2023/04/17 10:55:50;;;;;;;15.33;13.77;;;12.10;58.70;;;;;;6286675;28;20252;-78
2023/04/17 10:58:58;;;;;;;14.50;13.20;;;12.30;57.80;;;;;;6286833;28;20823;-78
2023/04/17 11:02:03;;;;;;;15.07;13.67;;;12.40;58.00;;;;;;6277087;28;20305;-77
2023/04/17 11:05:07;;;;;;;14.87;13.37;;;12.50;56.80;;;;;;6289099;28;20248;-78
2023/04/17 11:08:10;;;;;;;16.07;14.53;;;12.70;58.10;;;;;;6254575;28;20237;-79
2023/04/17 11:11:17;;;;;;;15.73;14.27;;;12.90;56.40;;;;;;6287131;28;20241;-80
2023/04/17 11:14:41;;;;;;;15.00;13.50;;;13.10;56.20;;;;;;6275106;28;20218;-79
2023/04/17 11:17:48;;;;;;;15.37;13.97;;;13.00;55.90;;;;;;6271523;28;20230;-79
2023/04/17 11:20:52;;;;;;;16.43;13.23;;;12.70;56.60;;;;;;6283278;28;20241;-78
2023/04/17 11:23:55;;;;;;;15.03;13.67;;;12.70;55.90;;;;;;6276986;28;20230;-78
2023/04/17 11:27:02;;;;;;;15.47;13.80;;;12.70;56.10;;;;;;6287069;28;20240;-80
2023/04/17 11:30:07;;;;;;;15.30;13.93;;;12.70;55.30;;;;;;6283839;28;20276;-79
2023/04/17 11:33:11;;;;;;;15.23;13.77;;;12.80;55.60;;;;;;6281538;28;20370;-81
2023/04/17 11:36:15;;;;;;;15.63;14.03;;;12.80;55.50;;;;;;6280347;28;20241;-81
2023/04/17 11:39:18;;;;;;;15.70;14.30;;;12.80;56.50;;;;;;6281326;28;20313;-80
2023/04/17 11:42:27;;;;;;;16.20;14.83;;;13.00;56.20;;;;;;6307503;28;20280;-81
2023/04/17 11:45:31;;;;;;;14.43;13.10;;;13.00;55.90;;;;;;6318132;28;20763;-77
2023/04/17 11:48:35;;;;;;;13.83;12.53;;;13.00;55.20;;;;;;6312380;28;20252;-78
2023/04/17 11:51:38;;;;;;;14.53;13.23;;;13.10;55.00;;;;;;6305711;28;20247;-78
2023/04/17 11:54:41;;;;;;;16.37;14.77;;;13.20;55.20;;;;;;6287480;28;20739;-80
2023/04/17 11:57:46;;;;;;;13.87;12.57;;;13.10;55.00;;;;;;6281423;28;20233;-81
2023/04/17 12:01:04;;;;;;;14.77;13.57;;;13.30;55.20;;;;;;6289538;28;20240;-80
2023/04/17 12:04:20;;;;;;;17.43;13.97;;;13.50;55.30;;;;;;6287971;28;20266;-81
2023/04/17 12:07:24;;;;;;;16.67;15.27;;;13.50;54.50;;;;;;6289773;28;20668;-80
2023/04/17 12:10:37;;;;;;;17.93;15.97;;;13.00;55.60;;;;;;6263291;27;20242;-79
2023/04/17 12:13:41;;;;;;;15.70;14.27;;;12.90;56.20;;;;;;6285935;28;20410;-80
2023/04/17 12:16:48;;;;;;;16.03;14.40;;;12.60;56.20;;;;;;6287977;28;20367;-80
2023/04/17 12:19:51;;;;;;;16.37;14.63;;;12.50;56.10;;;;;;6291642;28;20222;-80
2023/04/17 12:22:55;;;;;;;16.40;14.90;;;12.50;56.70;;;;;;6285355;28;20295;-80
2023/04/17 12:25:58;;;;;;;15.83;14.17;;;12.20;57.20;;;;;;6291057;28;20225;-79
2023/04/17 12:29:02;;;;;;;17.37;14.87;;;12.00;57.90;;;;;;6295007;28;20229;-81
2023/04/17 12:32:06;;;;;;;16.47;14.77;;;11.90;58.70;;;;;;6286044;28;20322;-78
2023/04/17 12:35:10;;;;;;;15.47;13.97;;;11.50;59.20;;;;;;6285223;28;20234;-81
2023/04/17 12:38:13;;;;;;;15.67;14.30;;;11.40;59.80;;;;;;6290588;28;20383;-81
2023/04/17 12:41:16;;;;;;;16.37;14.77;;;11.30;60.00;;;;;;6292804;28;20264;-80
2023/04/17 12:44:20;;;;;;;17.90;16.30;;;11.20;59.60;;;;;;6298587;28;20241;-81
2023/04/17 12:47:24;;;;;;;16.80;15.23;;;11.10;60.10;;;;;;6297342;28;20749;-80
2023/04/17 12:50:27;;;;;;;15.43;13.93;;;11.10;59.00;;;;;;6290549;28;20233;-80
2023/04/17 12:53:30;;;;;;;16.50;14.80;;;11.10;58.90;;;;;;6291725;28;20834;-78
2023/04/17 12:56:33;;;;;;;14.83;13.43;;;11.10;58.80;;;;;;6284315;28;20225;-79
2023/04/17 12:59:38;;;;;;;14.20;12.90;;;11.10;58.50;;;;;;6280740;28;20233;-81
2023/04/17 13:02:41;;;;;;;16.20;13.70;;;11.10;58.50;;;;;;6291497;28;20238;-80
2023/04/17 13:05:45;;;;;;;14.47;13.27;;;11.10;58.00;;;;;;6287984;28;20316;-79
2023/04/17 13:08:48;;;;;;;14.77;13.33;;;11.10;57.90;;;;;;6288672;28;20226;-78
2023/04/17 13:11:51;;;;;;;14.70;13.20;;;11.10;57.80;;;;;;6291362;28;20229;-81
2023/04/17 13:14:56;;;;;;;15.23;13.80;;;11.10;57.90;;;;;;6293839;28;20230;-81
2023/04/17 13:17:59;;;;;;;16.67;14.97;;;11.00;58.10;;;;;;6288269;28;20247;-80
2023/04/17 13:21:02;;;;;;;18.20;15.97;;;10.80;58.50;;;;;;6295977;28;20252;-79
2023/04/17 13:24:07;;;;;;;17.97;16.27;;;10.60;59.40;;;;;;6288135;28;20236;-80
2023/04/17 13:27:11;;;;;;;17.83;16.10;;;10.50;59.20;;;;;;6293160;28;20229;-80
2023/04/17 13:30:16;;;;;;;18.57;16.60;;;10.50;59.30;;;;;;6284211;28;20237;-79
2023/04/17 13:33:19;;;;;;;19.57;17.67;;;10.50;59.80;;;;;;6281734;28;20238;-80
2023/04/17 13:36:22;;;;;;;24.13;18.20;;;10.40;60.60;;;;;;6288102;28;20287;-80
2023/04/17 13:39:25;;;;;;;21.57;18.53;;;10.30;61.70;;;;;;6287672;28;20236;-80
2023/04/17 13:42:28;;;;;;;21.40;18.03;;;10.20;62.20;;;;;;6282277;28;20316;-80
2023/04/17 13:45:33;;;;;;;19.87;17.73;;;10.20;62.50;;;;;;6292883;28;20245;-79
2023/04/17 13:48:36;;;;;;;21.20;19.00;;;10.30;62.70;;;;;;6283683;28;20242;-78
2023/04/17 13:51:39;;;;;;;25.07;20.47;;;10.20;63.00;;;;;;6292171;28;20244;-79
2023/04/17 13:54:42;;;;;;;22.20;20.00;;;10.20;63.10;;;;;;6288633;28;20233;-79
2023/04/17 13:57:45;;;;;;;23.07;20.60;;;10.10;63.00;;;;;;6281685;28;20262;-80
2023/04/17 14:00:50;;;;;;;22.27;19.77;;;10.10;63.40;;;;;;6301550;28;20229;-77
2023/04/17 14:03:53;;;;;;;22.53;20.13;;;10.10;63.50;;;;;;6313474;28;20285;-78
2023/04/17 14:06:57;;;;;;;22.50;20.20;;;10.00;64.20;;;;;;6308951;28;20232;-77
2023/04/17 14:10:02;;;;;;;24.33;21.90;;;10.00;64.00;;;;;;6322330;28;20295;-78
2023/04/17 14:13:05;;;;;;;22.80;20.60;;;10.00;64.20;;;;;;6314747;28;20218;-79
2023/04/17 14:16:10;;;;;;;24.60;22.20;;;9.90;64.40;;;;;;6289561;28;20237;-79
2023/04/17 14:19:13;;;;;;;23.07;20.77;;;9.80;64.70;;;;;;6275408;28;20229;-77
2023/04/17 14:22:17;;;;;;;26.27;23.67;;;9.80;65.00;;;;;;6283857;28;20229;-79
2023/04/17 14:25:20;;;;;;;24.23;21.83;;;9.70;65.70;;;;;;6288768;28;20240;-80
2023/04/17 14:28:23;;;;;;;23.67;21.30;;;9.60;65.80;;;;;;6275610;28;20233;-80
2023/04/17 14:31:31;;;;;;;26.07;23.00;;;9.50;66.40;;;;;;6278151;28;20383;-80
2023/04/17 14:34:34;;;;;;;24.00;21.57;;;9.40;67.50;;;;;;6284361;28;20283;-79
2023/04/17 14:37:37;;;;;;;23.97;21.37;;;9.40;68.00;;;;;;6284003;28;20255;-79
2023/04/17 14:40:41;;;;;;;22.80;20.40;;;9.20;68.60;;;;;;6288552;28;20249;-77
2023/04/17 14:43:44;;;;;;;23.13;20.80;;;9.20;68.80;;;;;;6291255;28;20236;-79
2023/04/17 14:46:49;;;;;;;23.40;21.00;;;9.10;69.30;;;;;;6290918;28;20782;-79
2023/04/17 14:49:52;;;;;;;24.77;22.10;;;9.00;69.60;;;;;;6273266;28;20822;-76
2023/04/17 14:52:55;;;;;;;23.93;21.57;;;9.00;70.30;;;;;;6289857;28;20244;-78
2023/04/17 14:55:59;;;;;;;23.33;20.90;;;9.20;70.30;;;;;;6287498;28;20234;-78
2023/04/17 14:59:04;;;;;;;22.13;19.77;;;9.00;70.70;;;;;;6282687;28;20741;-77
2023/04/17 15:02:09;;;;;;;24.87;22.20;;;9.00;71.10;;;;;;6275012;28;20237;-78
2023/04/17 15:05:15;;;;;;;25.10;22.53;;;9.00;71.50;;;;;;6290736;28;20233;-79
2023/04/17 15:08:18;;;;;;;21.27;19.20;;;9.00;72.00;;;;;;6285451;28;20253;-80
2023/04/17 15:11:21;;;;;;;22.23;19.90;;;9.00;72.20;;;;;;6289964;28;20355;-81
2023/04/17 15:14:25;;;;;;;22.20;19.97;;;9.00;72.50;;;;;;6291434;28;20241;-80
2023/04/17 15:17:30;;;;;;;22.43;20.17;;;9.00;72.50;;;;;;6268100;28;20874;-77
2023/04/17 15:20:34;;;;;;;21.57;19.37;;;9.00;72.30;;;;;;6296518;28;20240;-80
2023/04/17 15:23:39;;;;;;;23.43;21.00;;;9.00;72.60;;;;;;6294269;28;20257;-78
2023/04/17 15:26:42;;;;;;;24.67;22.07;;;8.80;72.60;;;;;;6286546;28;20246;-79
2023/04/17 15:29:47;;;;;;;23.17;20.90;;;8.80;72.80;;;;;;6292899;28;20293;-79
2023/04/17 15:32:51;;;;;;;24.23;21.73;;;8.70;72.80;;;;;;6281643;28;20233;-79
2023/04/17 15:35:56;;;;;;;22.33;20.03;;;8.60;72.80;;;;;;6286797;28;20229;-79
2023/04/17 15:39:00;;;;;;;22.03;19.80;;;8.60;72.60;;;;;;6286540;28;20643;-80
2023/04/17 15:42:03;;;;;;;21.77;19.47;;;8.60;72.40;;;;;;6288327;28;20267;-78
2023/04/17 15:45:08;;;;;;;21.07;19.03;;;8.60;72.50;;;;;;6282701;28;20247;-78